createdAt,value
2018-08-12T00:00:28.527Z,98469.84
2018-08-12T00:02:57.938Z,98465.77
2018-08-12T00:05:26.278Z,98462.88
2018-08-12T00:07:54.738Z,98464.84
2018-08-12T00:10:23.893Z,98449.64
2018-08-12T00:12:52.151Z,98463.09
2018-08-12T00:15:21.605Z,98463.56
2018-08-12T00:17:49.928Z,98462.28
2018-08-12T00:20:20.027Z,98459.03
2018-08-12T00:22:48.798Z,98455.81
2018-08-12T00:25:18.569Z,98452.31
2018-08-12T00:27:46.915Z,98450.92
2018-08-12T00:30:16.387Z,98446.75
2018-08-12T00:32:44.779Z,98446.39
2018-08-12T00:35:14.270Z,98446.07
2018-08-12T00:37:42.765Z,98442.00
2018-08-12T00:40:12.583Z,98439.79
2018-08-12T00:42:40.842Z,98434.94
2018-08-12T00:45:13.659Z,98434.47
2018-08-12T00:47:42.067Z,98431.58
2018-08-12T00:50:11.587Z,98427.62
2018-08-12T00:52:39.811Z,98425.66
2018-08-12T00:55:10.414Z,98422.30
2018-08-12T00:57:38.639Z,98425.55
2018-08-12T01:00:14.175Z,98426.13
2018-08-12T01:02:42.476Z,98430.08
2018-08-12T01:05:12.937Z,98426.02
2018-08-12T01:07:42.130Z,98424.73
2018-08-12T01:10:11.130Z,98421.97
2018-08-12T01:12:39.401Z,98416.16
2018-08-12T01:15:10.067Z,98414.20
2018-08-12T01:17:38.416Z,98421.97
2018-08-12T01:20:07.924Z,98402.27
2018-08-12T01:22:36.187Z,98415.11
2018-08-12T01:25:05.265Z,98410.94
2018-08-12T01:27:33.494Z,98414.30
2018-08-12T01:30:01.779Z,98407.13
2018-08-12T01:32:30.055Z,98411.30
2018-08-12T01:34:58.283Z,98413.05
2018-08-12T01:37:26.563Z,98406.31
2018-08-12T01:39:54.823Z,98406.55
2018-08-12T01:42:23.084Z,98409.56
2018-08-12T01:44:51.407Z,98393.58
2018-08-12T01:47:19.690Z,98399.01
2018-08-12T01:49:47.982Z,98391.82
2018-08-12T01:52:16.279Z,98398.76
2018-08-12T01:54:44.455Z,98393.18
2018-08-12T01:57:12.662Z,98385.03
2018-08-12T01:59:40.879Z,98391.34
2018-08-12T02:02:09.183Z,98385.31
2018-08-12T02:04:37.474Z,98382.53
2018-08-12T02:07:05.800Z,98379.00
2018-08-12T02:09:34.059Z,98375.32
2018-08-12T02:12:02.356Z,98375.30
2018-08-12T02:14:30.646Z,98376.47
2018-08-12T02:16:58.934Z,98371.63
2018-08-12T02:19:27.130Z,98369.02
2018-08-12T02:21:55.417Z,98357.11
2018-08-12T02:24:23.698Z,98354.93
2018-08-12T02:26:52.019Z,98356.52
2018-08-12T02:29:20.243Z,98355.37
2018-08-12T02:31:48.463Z,98348.55
2018-08-12T02:34:16.742Z,98343.11
2018-08-12T02:36:44.951Z,98331.98
2018-08-12T02:39:13.255Z,98329.16
2018-08-12T02:41:41.531Z,98330.35
2018-08-12T02:44:09.847Z,98323.61
2018-08-12T02:46:38.137Z,98325.25
2018-08-12T02:49:06.439Z,98320.14
2018-08-12T02:51:34.666Z,98318.99
2018-08-12T02:54:02.929Z,98316.69
2018-08-12T02:56:31.124Z,98314.39
2018-08-12T02:58:59.335Z,98308.92
2018-08-12T03:01:27.534Z,98309.84
2018-08-12T03:03:55.836Z,98311.56
2018-08-12T03:06:24.100Z,98314.02
2018-08-12T03:08:52.379Z,98306.00
2018-08-12T03:11:20.579Z,98303.95
2018-08-12T03:13:55.482Z,98304.28
2018-08-12T03:16:23.707Z,98309.39
2018-08-12T03:18:52.051Z,98301.87
2018-08-12T03:21:20.334Z,98300.84
2018-08-12T03:23:48.583Z,98297.82
2018-08-12T03:26:16.865Z,98299.11
2018-08-12T03:28:45.198Z,98298.41
2018-08-12T03:31:13.631Z,98296.06
2018-08-12T03:33:41.927Z,98297.94
2018-08-12T03:36:10.143Z,98295.03
2018-08-12T03:38:38.430Z,98295.62
2018-08-12T03:41:06.643Z,98286.83
2018-08-12T03:43:34.878Z,98290.86
2018-08-12T03:46:03.087Z,98290.64
2018-08-12T03:48:31.426Z,98278.00
2018-08-12T03:50:59.679Z,98286.34
2018-08-12T03:53:27.951Z,98293.76
2018-08-12T03:55:56.239Z,98290.39
2018-08-12T03:58:24.464Z,98285.29
2018-08-12T04:00:52.683Z,98282.94
2018-08-12T04:03:21.123Z,98289.09
2018-08-12T04:05:49.383Z,98284.21
2018-08-12T04:08:17.654Z,98284.66
2018-08-12T04:10:45.879Z,98281.64
2018-08-12T04:13:14.111Z,98279.19
2018-08-12T04:15:42.318Z,98280.62
2018-08-12T04:18:10.538Z,98274.16
2018-08-12T04:20:38.807Z,98283.86
2018-08-12T04:23:07.151Z,98285.16
2018-08-12T04:25:35.362Z,98280.74
2018-08-12T04:28:03.610Z,98278.31
2018-08-12T04:30:31.844Z,98284.91
2018-08-12T04:33:00.048Z,98283.64
2018-08-12T04:35:28.259Z,98284.11
2018-08-12T04:37:56.831Z,98278.39
2018-08-12T04:40:25.123Z,98284.64
2018-08-12T04:42:53.415Z,98274.58
2018-08-12T04:45:21.623Z,98278.09
2018-08-12T04:47:49.891Z,98281.14
2018-08-12T04:50:18.199Z,98277.98
2018-08-12T04:52:46.403Z,98281.09
2018-08-12T04:55:14.631Z,98267.53
2018-08-12T04:57:42.895Z,98278.90
2018-08-12T05:00:11.167Z,98282.86
2018-08-12T05:02:39.687Z,98278.56
2018-08-12T05:05:08.183Z,98282.40
2018-08-12T05:07:36.407Z,98283.58
2018-08-12T05:10:05.543Z,98276.64
2018-08-12T05:12:33.830Z,98279.08
2018-08-12T05:15:02.066Z,98273.16
2018-08-12T05:17:30.391Z,98266.34
2018-08-12T05:20:01.094Z,98270.97
2018-08-12T05:22:29.324Z,98257.07
2018-08-12T05:24:57.651Z,98256.53
2018-08-12T05:27:25.890Z,98251.62
2018-08-12T05:29:54.415Z,98246.99
2018-08-12T05:32:22.654Z,98238.33
2018-08-12T05:34:50.878Z,98241.68
2018-08-12T05:37:19.160Z,98241.41
2018-08-12T05:39:48.588Z,98231.90
2018-08-12T05:42:16.849Z,98226.80
2018-08-12T05:44:45.194Z,98236.77
2018-08-12T05:47:13.799Z,98230.95
2018-08-12T05:49:42.015Z,98227.97
2018-08-12T05:52:10.347Z,98221.78
2018-08-12T05:54:38.685Z,98203.52
2018-08-12T05:57:07.052Z,98214.88
2018-08-12T05:59:35.282Z,98222.56
2018-08-12T06:02:03.607Z,98215.72
2018-08-12T06:04:31.875Z,98217.37
2018-08-12T06:07:00.132Z,98217.37
2018-08-12T06:09:28.438Z,98210.38
2018-08-12T06:11:56.746Z,98214.59
2018-08-12T06:14:25.035Z,98209.23
2018-08-12T06:16:53.295Z,98206.53
2018-08-12T06:19:21.507Z,98204.91
2018-08-12T06:21:49.811Z,98204.65
2018-08-12T06:24:18.091Z,98195.02
2018-08-12T06:26:46.298Z,98201.97
2018-08-12T06:29:14.506Z,98196.38
2018-08-12T06:31:42.754Z,98198.52
2018-08-12T06:34:11.010Z,98190.15
2018-08-12T06:36:39.338Z,98193.93
2018-08-12T06:39:10.032Z,98183.12
2018-08-12T06:41:38.226Z,98186.66
2018-08-12T06:44:06.694Z,98181.23
2018-08-12T06:46:35.084Z,98181.61
2018-08-12T06:49:03.335Z,98183.73
2018-08-12T06:51:31.691Z,98179.41
2018-08-12T06:54:00.075Z,98177.20
2018-08-12T06:56:28.363Z,98180.35
2018-08-12T06:58:56.690Z,98174.84
2018-08-12T07:01:24.983Z,98173.62
2018-08-12T07:03:53.200Z,98168.33
2018-08-12T07:06:21.422Z,98167.59
2018-08-12T07:08:49.731Z,98164.73
2018-08-12T07:11:18.107Z,98161.94
2018-08-12T07:13:46.428Z,98163.38
2018-08-12T07:16:14.930Z,98165.42
2018-08-12T07:18:43.207Z,98169.51
2018-08-12T07:21:11.404Z,98164.13
2018-08-12T07:23:39.630Z,98167.00
2018-08-12T07:26:07.891Z,98167.59
2018-08-12T07:28:36.091Z,98168.28
2018-08-12T07:31:04.344Z,98156.77
2018-08-12T07:33:32.583Z,98153.44
2018-08-12T07:36:00.815Z,98147.25
2018-08-12T07:38:29.034Z,98151.20
2018-08-12T07:40:57.278Z,98147.78
2018-08-12T07:43:25.516Z,98156.36
2018-08-12T07:45:53.752Z,98153.66
2018-08-12T07:48:21.922Z,98147.28
2018-08-12T07:50:50.233Z,98140.13
2018-08-12T07:53:18.520Z,98138.89
2018-08-12T07:55:46.811Z,98133.97
2018-08-12T07:58:14.947Z,98133.97
2018-08-12T08:00:43.158Z,98129.98
2018-08-12T08:03:11.491Z,98127.70
2018-08-12T08:05:39.812Z,98129.19
2018-08-12T08:08:08.025Z,98132.38
2018-08-12T08:10:36.361Z,98132.84
2018-08-12T08:13:04.735Z,98130.45
2018-08-12T08:15:32.955Z,98125.37
2018-08-12T08:18:01.175Z,98133.85
2018-08-12T08:20:29.515Z,98124.22
2018-08-12T08:22:57.794Z,98126.41
2018-08-12T08:25:26.144Z,98125.37
2018-08-12T08:27:54.308Z,98133.41
2018-08-12T08:30:22.546Z,98129.91
2018-08-12T08:32:50.847Z,98128.39
2018-08-12T08:35:19.042Z,98123.34
2018-08-12T08:37:47.315Z,98120.67
2018-08-12T08:40:16.767Z,98119.72
2018-08-12T08:42:45.163Z,98118.72
2018-08-12T08:45:16.650Z,98114.31
2018-08-12T08:47:46.394Z,98113.56
2018-08-12T08:50:14.971Z,98115.94
2018-08-12T08:52:43.214Z,98107.81
2018-08-12T08:55:12.861Z,98110.61
2018-08-12T08:57:41.092Z,98102.41
2018-08-12T09:00:12.218Z,98095.85
2018-08-12T09:02:41.011Z,98095.81
2018-08-12T09:05:10.931Z,98097.10
2018-08-12T09:07:39.647Z,98091.09
2018-08-12T09:10:09.447Z,98091.48
2018-08-12T09:12:38.566Z,98086.25
2018-08-12T09:15:08.607Z,98081.39
2018-08-12T09:17:36.865Z,98081.81
2018-08-12T09:20:07.296Z,98080.41
2018-08-12T09:22:35.578Z,98076.39
2018-08-12T09:25:03.827Z,98086.44
2018-08-12T09:27:32.159Z,98072.14
2018-08-12T09:30:00.523Z,98077.30
2018-08-12T09:32:30.978Z,98073.46
2018-08-12T09:34:59.406Z,98071.26
2018-08-12T09:37:27.766Z,98066.92
2018-08-12T09:39:56.015Z,98067.87
2018-08-12T09:42:24.366Z,98064.09
2018-08-12T09:44:52.639Z,98060.62
2018-08-12T09:47:20.880Z,98054.23
2018-08-12T09:49:49.177Z,98056.06
2018-08-12T09:52:17.527Z,98052.79
2018-08-12T09:54:45.750Z,98043.86
2018-08-12T09:57:14.035Z,98039.44
2018-08-12T09:59:42.339Z,98039.95
2018-08-12T10:02:10.635Z,98039.42
2018-08-12T10:04:38.904Z,98033.02
2018-08-12T10:07:07.283Z,98046.11
2018-08-12T10:09:35.539Z,98036.72
2018-08-12T10:12:03.806Z,98037.30
2018-08-12T10:14:32.114Z,98027.09
2018-08-12T10:17:00.379Z,98019.84
2018-08-12T10:19:28.679Z,98014.91
2018-08-12T10:21:57.272Z,98015.84
2018-08-12T10:24:25.579Z,98014.03
2018-08-12T10:26:53.825Z,98014.52
2018-08-12T10:29:22.158Z,98007.62
2018-08-12T10:31:50.426Z,98013.52
2018-08-12T10:34:18.782Z,98008.20
2018-08-12T10:36:47.246Z,98002.28
2018-08-12T10:39:15.575Z,97999.38
2018-08-12T10:41:43.791Z,98001.17
2018-08-12T10:44:12.364Z,97991.06
2018-08-12T10:46:40.671Z,97958.97
2018-08-12T10:49:08.955Z,97985.06
2018-08-12T10:51:37.294Z,97980.24
2018-08-12T10:54:05.632Z,97972.50
2018-08-12T10:56:33.994Z,97970.48
2018-08-12T10:59:02.364Z,97971.16
2018-08-12T11:01:30.647Z,97964.38
2018-08-12T11:06:26.323Z,97962.54
2018-08-12T11:08:54.615Z,97961.22
2018-08-12T11:11:22.981Z,97945.93
2018-08-12T11:13:51.244Z,97949.38
2018-08-12T11:16:19.437Z,97941.55
2018-08-12T11:18:47.815Z,97944.75
2018-08-12T11:21:16.314Z,97938.89
2018-08-12T11:23:44.614Z,97938.47
2018-08-12T11:26:12.899Z,97939.55
2018-08-12T11:28:41.217Z,97931.86
2018-08-12T11:31:09.460Z,97931.78
2018-08-12T11:33:37.799Z,97923.64
2018-08-12T11:36:06.131Z,97926.28
2018-08-12T11:38:34.438Z,97917.68
2018-08-12T11:41:02.711Z,97917.73
2018-08-12T11:43:31.019Z,97912.34
2018-08-12T11:45:59.286Z,97913.97
2018-08-12T11:48:27.723Z,97902.10
2018-08-12T11:50:55.954Z,97910.45
2018-08-12T11:53:24.287Z,97901.38
2018-08-12T11:55:52.530Z,97893.23
2018-08-12T11:58:20.831Z,97888.46
2018-08-12T12:00:49.251Z,97877.66
2018-08-12T12:03:17.613Z,97878.55
2018-08-12T12:05:45.906Z,97873.08
2018-08-12T12:08:14.239Z,97875.23
2018-08-12T12:10:42.514Z,97872.42
2018-08-12T12:13:10.796Z,97865.95
2018-08-12T12:15:39.000Z,97869.59
2018-08-12T12:18:07.291Z,97865.95
2018-08-12T12:20:35.651Z,97854.25
2018-08-12T12:23:03.859Z,97852.09
2018-08-12T12:25:32.155Z,97848.52
2018-08-12T12:28:00.448Z,97840.36
2018-08-12T12:30:28.843Z,97835.89
2018-08-12T12:32:57.197Z,97834.70
2018-08-12T12:35:25.465Z,97832.59
2018-08-12T12:37:53.782Z,97821.80
2018-08-12T12:40:22.062Z,97819.06
2018-08-12T12:42:50.471Z,97817.91
2018-08-12T12:45:18.996Z,97812.23
2018-08-12T12:47:47.343Z,97809.94
2018-08-12T12:50:17.530Z,97814.58
2018-08-12T12:52:46.656Z,97803.37
2018-08-12T12:55:15.008Z,97802.49
2018-08-12T12:57:43.267Z,97807.81
2018-08-12T13:00:13.519Z,97801.62
2018-08-12T13:02:41.799Z,97801.41
2018-08-12T13:05:12.098Z,97796.05
2018-08-12T13:07:40.439Z,97790.28
2018-08-12T13:10:09.877Z,97791.69
2018-08-12T13:12:38.349Z,97783.54
2018-08-12T13:15:08.304Z,97778.03
2018-08-12T13:17:36.522Z,97772.16
2018-08-12T13:20:06.320Z,97778.73
2018-08-12T13:22:34.567Z,97774.06
2018-08-12T13:25:02.930Z,97770.80
2018-08-12T13:27:31.375Z,97768.67
2018-08-12T13:29:59.827Z,97766.22
2018-08-12T13:32:28.188Z,97763.86
2018-08-12T13:34:56.404Z,97759.60
2018-08-12T13:37:24.665Z,97760.06
2018-08-12T13:39:52.950Z,97754.91
2018-08-12T13:42:21.307Z,97760.03
2018-08-12T13:44:49.806Z,97754.33
2018-08-12T13:47:18.230Z,97753.64
2018-08-12T13:49:46.551Z,97742.74
2018-08-12T13:52:14.873Z,97737.41
2018-08-12T13:54:43.116Z,97737.52
2018-08-12T13:57:11.406Z,97734.72
2018-08-12T13:59:39.790Z,97727.23
2018-08-12T14:02:08.232Z,97729.03
2018-08-12T14:04:36.431Z,97729.64
2018-08-12T14:07:04.676Z,97723.92
2018-08-12T14:09:32.947Z,97718.09
2018-08-12T14:12:01.235Z,97710.20
2018-08-12T14:14:29.597Z,97706.27
2018-08-12T14:16:57.839Z,97703.44
2018-08-12T14:19:26.119Z,97701.55
2018-08-12T14:21:54.467Z,97694.53
2018-08-12T14:24:22.698Z,97691.11
2018-08-12T14:26:51.027Z,97687.32
2018-08-12T14:29:19.307Z,97673.36
2018-08-12T14:31:47.721Z,97678.06
2018-08-12T14:34:15.994Z,97675.19
2018-08-12T14:36:44.299Z,97677.59
2018-08-12T14:39:12.615Z,97668.29
2018-08-12T14:41:41.075Z,97666.45
2018-08-12T14:44:09.385Z,97667.95
2018-08-12T14:46:37.703Z,97664.66
2018-08-12T14:49:06.087Z,97659.66
2018-08-12T14:51:34.356Z,97654.14
2018-08-12T14:54:02.642Z,97649.12
2018-08-12T14:56:30.959Z,97644.39
2018-08-12T14:58:59.270Z,97637.82
2018-08-12T15:01:27.624Z,97636.02
2018-08-12T15:03:55.912Z,97631.32
2018-08-12T15:06:24.211Z,97627.78
2018-08-12T15:08:52.734Z,97620.41
2018-08-12T15:11:21.102Z,97621.72
2018-08-12T15:13:49.510Z,97609.59
2018-08-12T15:16:17.874Z,97610.77
2018-08-12T15:18:46.055Z,97597.33
2018-08-12T15:21:14.311Z,97595.06
2018-08-12T15:23:42.586Z,97598.30
2018-08-12T15:26:11.843Z,97594.28
2018-08-12T15:28:40.131Z,97597.10
2018-08-12T15:31:08.342Z,97585.80
2018-08-12T15:33:37.538Z,97588.20
2018-08-12T15:36:07.446Z,97582.22
2018-08-12T15:38:48.046Z,97583.45
2018-08-12T15:41:16.331Z,97573.16
2018-08-12T15:43:44.607Z,97565.38
2018-08-12T15:46:12.795Z,97559.52
2018-08-12T15:48:41.036Z,97558.24
2018-08-12T15:51:09.510Z,97560.77
2018-08-12T15:53:37.676Z,97551.97
2018-08-12T15:56:06.098Z,97554.13
2018-08-12T15:58:34.299Z,97553.01
2018-08-12T16:01:02.500Z,97544.11
2018-08-12T16:03:30.882Z,97546.94
2018-08-12T16:05:59.024Z,97542.84
2018-08-12T16:08:27.295Z,97535.48
2018-08-12T16:10:55.538Z,97534.64
2018-08-12T16:13:23.738Z,97532.76
2018-08-12T16:15:51.986Z,97534.16
2018-08-12T16:18:20.266Z,97530.70
2018-08-12T16:20:48.470Z,97527.37
2018-08-12T16:23:16.739Z,97528.50
2018-08-12T16:25:45.002Z,97524.49
2018-08-12T16:28:13.268Z,97519.05
2018-08-12T16:30:41.471Z,97521.27
2018-08-12T16:33:09.727Z,97512.19
2018-08-12T16:35:37.951Z,97510.69
2018-08-12T16:38:06.283Z,97507.33
2018-08-12T16:40:34.507Z,97504.36
2018-08-12T16:43:02.758Z,97492.84
2018-08-12T16:45:31.091Z,97487.64
2018-08-12T16:47:59.315Z,97483.42
2018-08-12T16:50:27.558Z,97485.59
2018-08-12T16:52:55.770Z,97486.81
2018-08-12T16:55:23.967Z,97481.07
2018-08-12T16:57:52.991Z,97476.73
2018-08-12T17:00:22.447Z,97477.77
2018-08-12T17:02:50.703Z,97474.34
2018-08-12T17:05:20.306Z,97469.42
2018-08-12T17:07:48.894Z,97467.58
2018-08-12T17:10:17.781Z,97469.42
2018-08-12T17:12:46.087Z,97476.61
2018-08-12T17:15:16.393Z,97467.02
2018-08-12T17:17:44.691Z,97478.77
2018-08-12T17:20:14.362Z,97471.12
2018-08-12T17:22:43.346Z,97469.64
2018-08-12T17:25:11.667Z,97465.81
2018-08-12T17:27:39.930Z,97466.87
2018-08-12T17:30:10.595Z,97471.97
2018-08-12T17:32:39.088Z,97464.09
2018-08-12T17:35:08.019Z,97468.64
2018-08-12T17:37:36.434Z,97470.72
2018-08-12T17:40:07.232Z,97472.22
2018-08-12T17:42:35.602Z,97468.27
2018-08-12T17:45:04.255Z,97475.89
2018-08-12T17:47:32.510Z,97472.10
2018-08-12T17:50:00.764Z,97469.34
2018-08-12T17:52:29.280Z,97476.77
2018-08-12T17:54:57.715Z,97477.37
2018-08-12T17:57:25.991Z,97477.02
2018-08-12T17:59:54.239Z,97480.63
2018-08-12T18:02:22.419Z,97482.74
2018-08-12T18:04:50.630Z,97482.27
2018-08-12T18:07:18.929Z,97482.20
2018-08-12T18:09:47.336Z,97487.59
2018-08-12T18:12:15.637Z,97490.44
2018-08-12T18:14:43.926Z,97495.85
2018-08-12T18:17:12.240Z,97503.52
2018-08-12T18:19:40.535Z,97494.00
2018-08-12T18:22:09.107Z,97500.83
2018-08-12T18:24:37.558Z,97500.92
2018-08-12T18:27:06.522Z,97490.75
2018-08-12T18:29:34.787Z,97500.31
2018-08-12T18:32:03.007Z,97499.34
2018-08-12T18:34:31.264Z,97498.77
2018-08-12T18:36:59.644Z,97498.00
2018-08-12T18:39:27.962Z,97502.00
2018-08-12T18:41:56.423Z,97503.20
2018-08-12T18:44:24.671Z,97502.91
2018-08-12T18:46:53.174Z,97513.38
2018-08-12T18:49:21.607Z,97510.76
2018-08-12T18:51:50.112Z,97510.03
2018-08-12T18:54:18.423Z,97514.11
2018-08-12T18:56:46.779Z,97517.13
2018-08-12T18:59:14.999Z,97509.98
2018-08-12T19:04:41.917Z,97518.81
2018-08-12T19:07:10.210Z,97522.69
2018-08-12T19:09:40.945Z,97529.86
2018-08-12T19:12:09.354Z,97524.02
2018-08-12T19:14:37.629Z,97527.03
2018-08-12T19:17:06.182Z,97534.70
2018-08-12T19:19:34.484Z,97536.61
2018-08-12T19:22:02.731Z,97536.55
2018-08-12T19:24:31.022Z,97534.77
2018-08-12T19:26:59.286Z,97526.28
2018-08-12T19:29:27.714Z,97526.67
2018-08-12T19:31:56.096Z,97526.22
2018-08-12T19:34:24.589Z,97526.22
2018-08-12T19:36:52.898Z,97539.58
2018-08-12T19:39:21.275Z,97528.36
2018-08-12T19:41:52.574Z,97526.09
2018-08-12T19:44:20.959Z,97528.12
2018-08-12T19:46:49.846Z,97528.12
2018-08-12T19:49:18.063Z,97527.36
2018-08-12T19:51:46.701Z,97532.60
2018-08-12T19:54:15.255Z,97532.16
2018-08-12T19:56:43.466Z,97519.64
2018-08-12T19:59:11.722Z,97521.69
2018-08-12T20:01:39.994Z,97526.86
2018-08-12T20:04:08.207Z,97520.77
2018-08-12T20:06:36.414Z,97524.03
2018-08-12T20:09:07.922Z,97518.31
2018-08-12T20:11:36.219Z,97515.11
2018-08-12T20:14:04.577Z,97518.11
2018-08-12T20:16:32.962Z,97516.72
2018-08-12T20:19:01.303Z,97512.92
2018-08-12T20:21:29.543Z,97508.91
2018-08-12T20:23:57.830Z,97511.11
2018-08-12T20:26:26.175Z,97511.88
2018-08-12T20:28:54.472Z,97510.90
2018-08-12T20:31:22.786Z,97515.89
2018-08-12T20:33:51.112Z,97509.44
2018-08-12T20:36:19.383Z,97507.46
2018-08-12T20:38:47.689Z,97499.90
2018-08-12T20:41:15.939Z,97501.33
2018-08-12T20:43:44.250Z,97502.22
2018-08-12T20:46:12.751Z,97496.97
2018-08-12T20:48:41.012Z,97496.97
2018-08-12T20:51:09.892Z,97505.16
2018-08-12T20:53:38.155Z,97507.55
2018-08-12T20:56:06.455Z,97498.63
2018-08-12T20:58:34.906Z,97492.41
2018-08-12T21:01:03.455Z,97500.21
2018-08-12T21:03:31.859Z,97508.53
2018-08-12T21:06:00.096Z,97492.00
2018-08-12T21:08:28.375Z,97489.66
2018-08-12T21:10:56.718Z,97490.62
2018-08-12T21:13:24.963Z,97498.91
2018-08-12T21:15:53.247Z,97499.44
2018-08-12T21:18:21.598Z,97489.89
2018-08-12T21:20:49.934Z,97493.19
2018-08-12T21:23:18.248Z,97489.63
2018-08-12T21:25:46.455Z,97494.99
2018-08-12T21:28:14.714Z,97489.64
2018-08-12T21:30:43.022Z,97493.09
2018-08-12T21:33:11.332Z,97486.70
2018-08-12T21:35:39.663Z,97486.94
2018-08-12T21:38:07.971Z,97492.34
2018-08-12T21:40:36.242Z,97493.88
2018-08-12T21:43:04.552Z,97490.43
2018-08-12T21:45:32.883Z,97494.10
2018-08-12T21:48:01.219Z,97491.77
2018-08-12T21:50:29.410Z,97484.52
2018-08-12T21:52:57.706Z,97491.41
2018-08-12T21:55:26.083Z,97496.22
2018-08-12T21:57:54.449Z,97498.20
2018-08-12T22:00:22.698Z,97492.02
2018-08-12T22:02:50.983Z,97493.80
2018-08-12T22:05:19.287Z,97488.61
2018-08-12T22:07:47.543Z,97496.23
2018-08-12T22:10:15.907Z,97496.41
2018-08-12T22:12:44.235Z,97494.61
2018-08-12T22:15:12.553Z,97497.00
2018-08-12T22:17:40.936Z,97500.23
2018-08-12T22:20:09.243Z,97499.65
2018-08-12T22:22:37.522Z,97497.46
2018-08-12T22:25:05.826Z,97498.44
2018-08-12T22:27:34.187Z,97495.46
2018-08-12T22:30:02.509Z,97495.86
2018-08-12T22:32:30.895Z,97488.24
2018-08-12T22:34:59.179Z,97483.64
2018-08-12T22:37:27.441Z,97482.24
2018-08-12T22:39:55.723Z,97481.84
2018-08-12T22:42:23.978Z,97482.43
2018-08-12T22:44:52.298Z,97481.03
2018-08-12T22:47:20.578Z,97478.64
2018-08-12T22:49:48.931Z,97479.05
2018-08-12T22:52:17.235Z,97477.02
2018-08-12T22:54:45.546Z,97477.23
2018-08-12T22:57:13.833Z,97475.45
2018-08-12T22:59:42.119Z,97476.45
2018-08-12T23:02:10.474Z,97470.84
2018-08-12T23:04:38.782Z,97463.64
2018-08-12T23:07:07.247Z,97462.42
2018-08-12T23:09:35.491Z,97456.20
2018-08-12T23:12:03.778Z,97461.19
2018-08-12T23:14:31.989Z,97460.22
2018-08-12T23:17:01.963Z,97460.19
2018-08-12T23:19:30.677Z,97458.80
2018-08-12T23:21:59.065Z,97455.99
2018-08-12T23:24:27.314Z,97454.59
2018-08-12T23:26:55.590Z,97451.17
2018-08-12T23:29:23.858Z,97452.56
2018-08-12T23:31:52.126Z,97450.98
2018-08-12T23:34:20.550Z,97452.56
2018-08-12T23:36:48.824Z,97445.38
2018-08-12T23:39:17.199Z,97443.39
2018-08-12T23:41:45.494Z,97442.18
2018-08-12T23:44:13.788Z,97439.56
2018-08-12T23:46:42.051Z,97439.78
2018-08-12T23:49:10.375Z,97435.98
2018-08-12T23:51:38.736Z,97434.19
2018-08-12T23:54:09.949Z,97427.38
2018-08-12T23:56:38.203Z,97430.17
2018-08-12T23:59:06.415Z,97432.34
